• Join FlightAware (Why Join?)
  • Login
  • US Flag 
08:48AM EDT


 

Airport Tracker/Info


-or-


 

Live Flight TrackerFlight Track Log ✈ N711TA ✈ 24-Apr-2014 ✈ KPIE - KLNA

Flight Track Log - Related Links

Times and Time Zones

All times are in EDT time to prevent confusion due to time zone crossing. See the N711TA flight status page for this flight to view local times or setup timezone preferences in your user account.

Time Position Orientation Groundspeed Altitude Reporting Facility
EDT Latitude Longitude Course Direction KTS MPH feet Rate Location/Type
06:02PM 27.9000 -82.6833 221° Southwest 90 104 400  Level Tampa TRACON
06:02PM 27.8833 -82.7000 202° Southwest 93 107 1,500 1,080 Climbing Tampa TRACON
06:03PM 27.8667 -82.7000 180° South 94 108 2,500 720 Climbing Tampa TRACON
06:04PM 27.8333 -82.7000 180° South 111 128 3,000 240 Climbing Tampa TRACON
06:05PM 27.8000 -82.7000 180° South 140 161 3,000 420 Level Tampa TRACON
06:07PM 27.7500 -82.7000 180° South 113 130 3,900 780 Climbing Tampa TRACON
06:08PM 27.7333 -82.6833 138° Southeast 110 127 4,700 600 Climbing Tampa TRACON
06:09PM 27.7167 -82.6500 119° Southeast 112 129 5,200 600 Climbing Tampa TRACON
06:10PM 27.7167 -82.6167 90° East 110 127 6,000 720 Climbing Tampa TRACON
06:11PM 27.7167 -82.5833 90° East 108 124 6,700 540 Climbing Tampa TRACON
06:11PM 27.7167 -82.5500 90° East 110 127 7,100 120 Climbing Tampa TRACON
06:13PM 27.7167 -82.5167 90° East 147 169 7,000 -60 Descending Tampa TRACON
06:14PM 27.7167 -82.4667 90° East 155 178 7,000  Level Tampa TRACON
06:15PM 27.7039 -82.3892 101° East 216 249 7,100  Climbing Miami Center
06:16PM 27.7017 -82.3375 93° East 175 201 7,000  Descending Miami Center
06:17PM 27.6972 -82.2903 96° East 158 182 7,100  Climbing Miami Center
06:18PM 27.6953 -82.2339 92° East 153 176 7,100  Level Miami Center
06:19PM 27.6758 -82.1931 118° Southeast 153 176 7,100  Level Miami Center
06:20PM 27.6500 -82.1544 127° Southeast 153 176 7,100  Level Miami Center
06:21PM 27.6264 -82.1183 126° Southeast 158 182 7,100  Level Miami Center
06:22PM 27.5967 -82.0747 128° Southeast 163 188 7,100 -60 Level Miami Center
06:23PM 27.5753 -82.0317 119° Southeast 163 188 7,000 -120 Descending Miami Center
06:24PM 27.5517 -81.9883 122° Southeast 158 182 6,900  Descending Miami Center
06:25PM 27.5303 -81.9500 122° Southeast 153 176 7,000  Climbing Miami Center
06:26PM 27.5067 -81.9092 123° Southeast 153 176 7,000  Level Miami Center
06:27PM 27.4828 -81.8731 127° Southeast 153 176 7,100  Climbing Miami Center
06:28PM 27.4569 -81.8322 125° Southeast 153 176 7,100 300 Level Miami Center
06:29PM 27.4372 -81.7986 123° Southeast 153 176 7,800 600 Climbing Miami Center
06:30PM 27.4197 -81.7675 122° Southeast 141 162 8,400 600 Climbing Miami Center
06:31PM 27.4019 -81.7386 125° Southeast 130 150 9,000 300 Climbing Miami Center
06:32PM 27.3822 -81.7028 122° Southeast 123 142 9,100  Climbing Miami Center
06:33PM 27.3586 -81.6619 123° Southeast 135 155 9,100  Level Miami Center
06:34PM 27.3347 -81.6211 123° Southeast 146 168 9,100  Level Miami Center
06:35PM 27.3153 -81.5808 119° Southeast 151 174 9,100  Level Miami Center
06:36PM 27.2914 -81.5400 123° Southeast 151 174 9,100  Level Miami Center
06:37PM 27.2697 -81.5017 122° Southeast 151 174 9,100  Level Miami Center
06:38PM 27.2461 -81.4611 123° Southeast 151 174 9,100  Level Miami Center
06:39PM 27.2264 -81.4206 119° Southeast 151 174 9,100  Level Miami Center
06:40PM 27.1983 -81.3844 131° Southeast 151 174 9,100 -60 Level Miami Center
06:41PM 27.1744 -81.3461 125° Southeast 151 174 9,000 -60 Descending Miami Center
06:42PM 27.1506 -81.3081 125° Southeast 156 180 9,000  Level Miami Center
06:43PM 27.1267 -81.2697 125° Southeast 156 180 9,000  Level Miami Center
06:44PM 27.1069 -81.2317 120° Southeast 150 173 9,100  Climbing Miami Center
06:45PM 27.0811 -81.1864 123° Southeast 150 173 9,100 -60 Level Miami Center
06:46PM 27.0553 -81.1481 127° Southeast 150 173 9,000 -60 Descending Miami Center
06:47PM 27.0292 -81.1100 128° Southeast 150 173 9,000  Level Miami Center
06:48PM 27.0094 -81.0672 117° Southeast 150 173 9,000  Level Miami Center
06:49PM 26.9878 -81.0314 124° Southeast 150 173 9,000  Level Miami Center
06:50PM 26.9597 -80.9886 126° Southeast 150 173 9,100  Climbing Miami Center
06:51PM 26.9358 -80.9481 123° Southeast 150 173 9,000 -60 Descending Miami Center
06:52PM 26.9119 -80.9075 123° Southeast 150 173 9,000 -240 Level Miami Center
06:53PM 26.8878 -80.8694 125° Southeast 160 184 8,600 -420 Descending Miami Center
06:54PM 26.8597 -80.8267 126° Southeast 166 191 8,200 -660 Descending Miami Center
06:55PM 26.8361 -80.7722 116° Southeast 171 197 7,300 -840 Descending Miami Center
06:56PM 26.8208 -80.7231 109° East 171 197 6,600 -540 Descending Miami Center
06:57PM 26.7967 -80.6850 125° Southeast 166 191 6,300 -300 Descending Miami Center
06:58PM 26.7644 -80.6375 127° Southeast 173 199 6,100 -240 Descending Miami Center
06:59PM 26.7447 -80.5925 116° Southeast 166 191 5,900 -240 Descending Miami Center
07:01PM 26.7342 -80.5376 102° East  Level FlightAware Approximate
07:08PM 26.6465 -80.2561 110° East  Level FlightAware Approximate
07:09PM 26.6332 -80.2161 110° East  Level FlightAware Approximate
07:10PM 26.6199 -80.1762 110° East  Level FlightAware Approximate
07:11PM 26.6049 -80.1371 114° Southeast  Level FlightAware Approximate
07:12PM 26.5893 -80.0983 114° Southeast  Level FlightAware Approximate
07:13PM 26.5833 -80.0833 114° Southeast  Level FlightAware Approximate
07:14PM 26.5931 -80.0851 318° Northwest  Level Estimated
07:15PM 26.5931 -80.0851 171° South  Level Estimated